sensor_id;sensor_type;location;lat;lon;timestamp;pressure;altitude;pressure_sealevel;temperature
20867;BMP280;10593;48.398;10.698;2024-02-23T00:02:18;94203.09;;;15.52
20867;BMP280;10593;48.398;10.698;2024-02-23T00:04:44;94208.41;;;15.50
20867;BMP280;10593;48.398;10.698;2024-02-23T00:07:11;94204.16;;;15.49
20867;BMP280;10593;48.398;10.698;2024-02-23T00:09:37;94207.78;;;15.47
20867;BMP280;10593;48.398;10.698;2024-02-23T00:12:03;94216.56;;;15.44
20867;BMP280;10593;48.398;10.698;2024-02-23T00:14:30;94227.84;;;15.43
20867;BMP280;10593;48.398;10.698;2024-02-23T00:17:02;94216.78;;;15.41
20867;BMP280;10593;48.398;10.698;2024-02-23T00:19:30;94228.91;;;15.41
20867;BMP280;10593;48.398;10.698;2024-02-23T00:21:55;94229.94;;;15.38
20867;BMP280;10593;48.398;10.698;2024-02-23T00:24:21;94222.41;;;15.35
20867;BMP280;10593;48.398;10.698;2024-02-23T00:26:48;94225.91;;;15.34
20867;BMP280;10593;48.398;10.698;2024-02-23T00:29:14;94241.53;;;15.33
20867;BMP280;10593;48.398;10.698;2024-02-23T00:31:40;94236.44;;;15.31
20867;BMP280;10593;48.398;10.698;2024-02-23T00:34:12;94242.56;;;15.30
20867;BMP280;10593;48.398;10.698;2024-02-23T00:36:40;94255.81;;;15.26
20867;BMP280;10593;48.398;10.698;2024-02-23T00:39:07;94260.13;;;15.25
20867;BMP280;10593;48.398;10.698;2024-02-23T00:41:34;94256.81;;;15.23
20867;BMP280;10593;48.398;10.698;2024-02-23T00:43:59;94268.09;;;15.22
20867;BMP280;10593;48.398;10.698;2024-02-23T00:46:25;94257.84;;;15.21
20867;BMP280;10593;48.398;10.698;2024-02-23T00:48:51;94261.38;;;15.20
20867;BMP280;10593;48.398;10.698;2024-02-23T00:51:17;94263.16;;;15.19
20867;BMP280;10593;48.398;10.698;2024-02-23T00:53:42;94258.06;;;15.18
20867;BMP280;10593;48.398;10.698;2024-02-23T00:56:08;94260.75;;;15.16
20867;BMP280;10593;48.398;10.698;2024-02-23T00:58:33;94263.44;;;15.15
20867;BMP280;10593;48.398;10.698;2024-02-23T01:01:00;94273.78;;;15.15
20867;BMP280;10593;48.398;10.698;2024-02-23T01:03:25;94273.06;;;15.13
20867;BMP280;10593;48.398;10.698;2024-02-23T01:05:51;94273.16;;;15.11
20867;BMP280;10593;48.398;10.698;2024-02-23T01:08:17;94291.34;;;15.10
20867;BMP280;10593;48.398;10.698;2024-02-23T01:10:43;94287.97;;;15.09
20867;BMP280;10593;48.398;10.698;2024-02-23T01:13:09;94283.72;;;15.08
20867;BMP280;10593;48.398;10.698;2024-02-23T01:15:35;94291.56;;;15.07
20867;BMP280;10593;48.398;10.698;2024-02-23T01:18:00;94299.41;;;15.05
20867;BMP280;10593;48.398;10.698;2024-02-23T01:20:26;94302.13;;;15.04
20867;BMP280;10593;48.398;10.698;2024-02-23T01:22:52;94300.47;;;15.03
20867;BMP280;10593;48.398;10.698;2024-02-23T01:25:17;94308.31;;;15.01
20867;BMP280;10593;48.398;10.698;2024-02-23T01:27:43;94314.41;;;15.00
20867;BMP280;10593;48.398;10.698;2024-02-23T01:30:12;94317.13;;;14.99
20867;BMP280;10593;48.398;10.698;2024-02-23T01:32:38;94317.22;;;14.97
20867;BMP280;10593;48.398;10.698;2024-02-23T01:35:06;94318.94;;;14.97
20867;BMP280;10593;48.398;10.698;2024-02-23T01:37:32;94313.78;;;14.97
20867;BMP280;10593;48.398;10.698;2024-02-23T01:39:59;94320.72;;;14.96
20867;BMP280;10593;48.398;10.698;2024-02-23T01:42:25;94318.22;;;14.95
20867;BMP280;10593;48.398;10.698;2024-02-23T01:44:52;94343.28;;;14.94
20867;BMP280;10593;48.398;10.698;2024-02-23T01:47:18;94350.31;;;14.92
20867;BMP280;10593;48.398;10.698;2024-02-23T01:49:46;94356.38;;;14.91
20867;BMP280;10593;48.398;10.698;2024-02-23T01:52:13;94357.44;;;14.89
20867;BMP280;10593;48.398;10.698;2024-02-23T01:54:40;94361.97;;;14.85
20867;BMP280;10593;48.398;10.698;2024-02-23T01:57:08;94360.38;;;14.83
20867;BMP280;10593;48.398;10.698;2024-02-23T01:59:36;94365.03;;;14.78
20867;BMP280;10593;48.398;10.698;2024-02-23T02:02:04;94367.91;;;14.73
20867;BMP280;10593;48.398;10.698;2024-02-23T02:04:30;94370.69;;;14.70
20867;BMP280;10593;48.398;10.698;2024-02-23T02:06:58;94386.41;;;14.68
20867;BMP280;10593;48.398;10.698;2024-02-23T02:09:25;94390.94;;;14.64
20867;BMP280;10593;48.398;10.698;2024-02-23T02:11:51;94386.88;;;14.60
20867;BMP280;10593;48.398;10.698;2024-02-23T02:14:16;94399.97;;;14.57
20867;BMP280;10593;48.398;10.698;2024-02-23T02:16:43;94409.69;;;14.54
20867;BMP280;10593;48.398;10.698;2024-02-23T02:19:10;94405.53;;;14.51
20867;BMP280;10593;48.398;10.698;2024-02-23T02:21:37;94410.06;;;14.48
20867;BMP280;10593;48.398;10.698;2024-02-23T02:24:03;94410.25;;;14.45
20867;BMP280;10593;48.398;10.698;2024-02-23T02:26:30;94415.63;;;14.42
20867;BMP280;10593;48.398;10.698;2024-02-23T02:28:57;94409.72;;;14.40
20867;BMP280;10593;48.398;10.698;2024-02-23T02:31:23;94402.13;;;14.37
20867;BMP280;10593;48.398;10.698;2024-02-23T02:33:48;94407.41;;;14.35
20867;BMP280;10593;48.398;10.698;2024-02-23T02:36:14;94409.28;;;14.33
20867;BMP280;10593;48.398;10.698;2024-02-23T02:38:40;94421.34;;;14.33
20867;BMP280;10593;48.398;10.698;2024-02-23T02:41:06;94418.03;;;14.31
20867;BMP280;10593;48.398;10.698;2024-02-23T02:43:32;94421.53;;;14.30
20867;BMP280;10593;48.398;10.698;2024-02-23T02:45:58;94425.03;;;14.29
20867;BMP280;10593;48.398;10.698;2024-02-23T02:48:24;94419.03;;;14.28
20867;BMP280;10593;48.398;10.698;2024-02-23T02:50:51;94427.72;;;14.27
20867;BMP280;10593;48.398;10.698;2024-02-23T02:53:17;94425.25;;;14.26
20867;BMP280;10593;48.398;10.698;2024-02-23T02:55:44;94428.72;;;14.25
20867;BMP280;10593;48.398;10.698;2024-02-23T02:58:11;94424.47;;;14.24
20867;BMP280;10593;48.398;10.698;2024-02-23T03:00:38;94415.91;;;14.23
20867;BMP280;10593;48.398;10.698;2024-02-23T03:03:03;94424.47;;;14.24
20867;BMP280;10593;48.398;10.698;2024-02-23T03:05:29;94435.72;;;14.23
20867;BMP280;10593;48.398;10.698;2024-02-23T03:07:55;94410.84;;;14.22
20867;BMP280;10593;48.398;10.698;2024-02-23T03:10:21;94392.75;;;14.22
20867;BMP280;10593;48.398;10.698;2024-02-23T03:12:46;94396.25;;;14.21
20867;BMP280;10593;48.398;10.698;2024-02-23T03:15:12;94409.19;;;14.21
20867;BMP280;10593;48.398;10.698;2024-02-23T03:17:38;94405.78;;;14.20
20867;BMP280;10593;48.398;10.698;2024-02-23T03:20:05;94399.78;;;14.20
20867;BMP280;10593;48.398;10.698;2024-02-23T03:22:31;94399.88;;;14.18
20867;BMP280;10593;48.398;10.698;2024-02-23T03:24:57;94401.63;;;14.18
20867;BMP280;10593;48.398;10.698;2024-02-23T03:27:28;94406.78;;;14.18
20867;BMP280;10593;48.398;10.698;2024-02-23T03:29:54;94403.34;;;14.17
20867;BMP280;10593;48.398;10.698;2024-02-23T03:32:20;94408.59;;;14.16
20867;BMP280;10593;48.398;10.698;2024-02-23T03:34:46;94402.59;;;14.15
20867;BMP280;10593;48.398;10.698;2024-02-23T03:37:11;94406.94;;;14.15
20867;BMP280;10593;48.398;10.698;2024-02-23T03:39:37;94400.13;;;14.14
20867;BMP280;10593;48.398;10.698;2024-02-23T03:42:04;94403.63;;;14.13
20867;BMP280;10593;48.398;10.698;2024-02-23T03:44:29;94393.38;;;14.11
20867;BMP280;10593;48.398;10.698;2024-02-23T03:46:57;94384.78;;;14.11
20867;BMP280;10593;48.398;10.698;2024-02-23T03:49:22;94386.63;;;14.09
20867;BMP280;10593;48.398;10.698;2024-02-23T03:51:48;94395.31;;;14.08
20867;BMP280;10593;48.398;10.698;2024-02-23T03:54:14;94398.00;;;14.06
20867;BMP280;10593;48.398;10.698;2024-02-23T03:56:40;94399.00;;;14.04
20867;BMP280;10593;48.398;10.698;2024-02-23T03:59:07;94397.25;;;14.04
20867;BMP280;10593;48.398;10.698;2024-02-23T04:01:36;94405.09;;;14.03
20867;BMP280;10593;48.398;10.698;2024-02-23T04:04:03;94395.78;;;14.00
20867;BMP280;10593;48.398;10.698;2024-02-23T04:06:29;94402.78;;;13.98
20867;BMP280;10593;48.398;10.698;2024-02-23T04:08:54;94417.44;;;13.98
20867;BMP280;10593;48.398;10.698;2024-02-23T04:11:20;94411.53;;;13.96
20867;BMP280;10593;48.398;10.698;2024-02-23T04:13:46;94425.28;;;13.96
20867;BMP280;10593;48.398;10.698;2024-02-23T04:16:11;94418.56;;;13.94
20867;BMP280;10593;48.398;10.698;2024-02-23T04:18:37;94414.31;;;13.93
20867;BMP280;10593;48.398;10.698;2024-02-23T04:21:03;94416.16;;;13.91
20867;BMP280;10593;48.398;10.698;2024-02-23T04:23:28;94417.09;;;13.90
20867;BMP280;10593;48.398;10.698;2024-02-23T04:25:54;94431.72;;;13.89
20867;BMP280;10593;48.398;10.698;2024-02-23T04:28:20;94426.69;;;13.88
20867;BMP280;10593;48.398;10.698;2024-02-23T04:30:45;94427.59;;;13.87
20867;BMP280;10593;48.398;10.698;2024-02-23T04:33:11;94431.91;;;13.86
20867;BMP280;10593;48.398;10.698;2024-02-23T04:35:37;94422.59;;;13.84
20867;BMP280;10593;48.398;10.698;2024-02-23T04:38:02;94419.19;;;13.83
20867;BMP280;10593;48.398;10.698;2024-02-23T04:40:28;94425.38;;;13.81
20867;BMP280;10593;48.398;10.698;2024-02-23T04:42:54;94416.81;;;13.80
20867;BMP280;10593;48.398;10.698;2024-02-23T04:45:19;94411.81;;;13.77
20867;BMP280;10593;48.398;10.698;2024-02-23T04:47:45;94411.00;;;13.77
20867;BMP280;10593;48.398;10.698;2024-02-23T04:50:12;94407.69;;;13.75
20867;BMP280;10593;48.398;10.698;2024-02-23T04:52:38;94408.59;;;13.74
20867;BMP280;10593;48.398;10.698;2024-02-23T04:55:04;94411.19;;;13.74
20867;BMP280;10593;48.398;10.698;2024-02-23T04:57:31;94416.41;;;13.72
20867;BMP280;10593;48.398;10.698;2024-02-23T04:59:57;94415.59;;;13.72
20867;BMP280;10593;48.398;10.698;2024-02-23T05:02:23;94411.34;;;13.71
20867;BMP280;10593;48.398;10.698;2024-02-23T05:04:48;94402.84;;;13.69
20867;BMP280;10593;48.398;10.698;2024-02-23T05:07:15;94404.69;;;13.67
20867;BMP280;10593;48.398;10.698;2024-02-23T05:09:40;94398.72;;;13.66
20867;BMP280;10593;48.398;10.698;2024-02-23T05:12:08;94407.41;;;13.65
20867;BMP280;10593;48.398;10.698;2024-02-23T05:14:34;94404.81;;;13.65
20867;BMP280;10593;48.398;10.698;2024-02-23T05:16:59;94414.38;;;13.63
20867;BMP280;10593;48.398;10.698;2024-02-23T05:19:25;94414.47;;;13.62
20867;BMP280;10593;48.398;10.698;2024-02-23T05:21:51;94427.47;;;13.60
20867;BMP280;10593;48.398;10.698;2024-02-23T05:24:16;94426.66;;;13.60
20867;BMP280;10593;48.398;10.698;2024-02-23T05:26:42;94432.63;;;13.60
20867;BMP280;10593;48.398;10.698;2024-02-23T05:29:09;94425.91;;;13.58
20867;BMP280;10593;48.398;10.698;2024-02-23T05:31:51;94437.03;;;13.58
20867;BMP280;10593;48.398;10.698;2024-02-23T05:34:17;94432.88;;;13.56
20867;BMP280;10593;48.398;10.698;2024-02-23T05:36:44;94431.22;;;13.55
20867;BMP280;10593;48.398;10.698;2024-02-23T05:39:12;94424.41;;;13.54
20867;BMP280;10593;48.398;10.698;2024-02-23T05:41:39;94432.13;;;13.54
20867;BMP280;10593;48.398;10.698;2024-02-23T05:44:05;94440.81;;;13.53
20867;BMP280;10593;48.398;10.698;2024-02-23T05:46:35;94439.16;;;13.52
20867;BMP280;10593;48.398;10.698;2024-02-23T05:49:02;94438.34;;;13.51
20867;BMP280;10593;48.398;10.698;2024-02-23T05:51:30;94446.16;;;13.50
20867;BMP280;10593;48.398;10.698;2024-02-23T05:53:57;94458.19;;;13.49
20867;BMP280;10593;48.398;10.698;2024-02-23T05:56:24;94450.56;;;13.48
20867;BMP280;10593;48.398;10.698;2024-02-23T05:58:53;94454.88;;;13.47
20867;BMP280;10593;48.398;10.698;2024-02-23T06:01:18;94450.75;;;13.45
20867;BMP280;10593;48.398;10.698;2024-02-23T06:03:45;94454.22;;;13.44
20867;BMP280;10593;48.398;10.698;2024-02-23T06:06:11;94460.22;;;13.44
20867;BMP280;10593;48.398;10.698;2024-02-23T06:08:37;94458.56;;;13.43
20867;BMP280;10593;48.398;10.698;2024-02-23T06:11:03;94449.16;;;13.42
20867;BMP280;10593;48.398;10.698;2024-02-23T06:13:32;94473.19;;;13.43
20867;BMP280;10593;48.398;10.698;2024-02-23T06:15:59;94464.72;;;13.41
20867;BMP280;10593;48.398;10.698;2024-02-23T06:18:25;94467.31;;;13.41
20867;BMP280;10593;48.398;10.698;2024-02-23T06:20:50;94458.81;;;13.39
20867;BMP280;10593;48.398;10.698;2024-02-23T06:23:16;94467.47;;;13.38
20867;BMP280;10593;48.398;10.698;2024-02-23T06:25:43;94462.31;;;13.38
20867;BMP280;10593;48.398;10.698;2024-02-23T06:28:09;94459.81;;;13.36
20867;BMP280;10593;48.398;10.698;2024-02-23T06:30:36;94457.25;;;13.36
20867;BMP280;10593;48.398;10.698;2024-02-23T06:33:01;94459.00;;;13.36
20867;BMP280;10593;48.398;10.698;2024-02-23T06:35:27;94459.94;;;13.35
20867;BMP280;10593;48.398;10.698;2024-02-23T06:37:53;94454.78;;;13.35
20867;BMP280;10593;48.398;10.698;2024-02-23T06:40:18;94456.50;;;13.34
20867;BMP280;10593;48.398;10.698;2024-02-23T06:42:44;94451.34;;;13.34
20867;BMP280;10593;48.398;10.698;2024-02-23T06:45:10;94456.50;;;13.34
20867;BMP280;10593;48.398;10.698;2024-02-23T06:47:36;94461.66;;;13.34
20867;BMP280;10593;48.398;10.698;2024-02-23T06:50:01;94467.75;;;13.33
20867;BMP280;10593;48.398;10.698;2024-02-23T06:52:29;94472.09;;;13.33
20867;BMP280;10593;48.398;10.698;2024-02-23T06:54:54;94473.81;;;13.32
20867;BMP280;10593;48.398;10.698;2024-02-23T06:57:20;94470.41;;;13.32
20867;BMP280;10593;48.398;10.698;2024-02-23T06:59:45;94489.28;;;13.32
20867;BMP280;10593;48.398;10.698;2024-02-23T07:02:11;94479.88;;;13.31
20867;BMP280;10593;48.398;10.698;2024-02-23T07:04:37;94476.41;;;13.32
20867;BMP280;10593;48.398;10.698;2024-02-23T07:07:02;94485.06;;;13.31
20867;BMP280;10593;48.398;10.698;2024-02-23T07:09:33;94496.22;;;13.32
20867;BMP280;10593;48.398;10.698;2024-02-23T07:11:59;94503.94;;;13.32
20867;BMP280;10593;48.398;10.698;2024-02-23T07:14:25;94502.19;;;13.32
20867;BMP280;10593;48.398;10.698;2024-02-23T07:16:51;94491.06;;;13.32
20867;BMP280;10593;48.398;10.698;2024-02-23T07:19:19;94485.06;;;13.31
20867;BMP280;10593;48.398;10.698;2024-02-23T07:21:48;94499.59;;;13.32
20867;BMP280;10593;48.398;10.698;2024-02-23T07:24:14;94489.28;;;13.32
20867;BMP280;10593;48.398;10.698;2024-02-23T07:26:39;94491.06;;;13.32
20867;BMP280;10593;48.398;10.698;2024-02-23T07:29:07;94489.41;;;13.31
20867;BMP280;10593;48.398;10.698;2024-02-23T07:31:32;94496.22;;;13.32
20867;BMP280;10593;48.398;10.698;2024-02-23T07:33:58;94480.75;;;13.32
20867;BMP280;10593;48.398;10.698;2024-02-23T07:36:24;94480.75;;;13.32
20867;BMP280;10593;48.398;10.698;2024-02-23T07:38:49;94468.66;;;13.32
20867;BMP280;10593;48.398;10.698;2024-02-23T07:41:15;94470.41;;;13.32
20867;BMP280;10593;48.398;10.698;2024-02-23T07:43:43;94469.56;;;13.31
20867;BMP280;10593;48.398;10.698;2024-02-23T07:46:09;94477.25;;;13.33
20867;BMP280;10593;48.398;10.698;2024-02-23T07:48:37;94491.06;;;13.32
20867;BMP280;10593;48.398;10.698;2024-02-23T07:51:04;94478.16;;;13.32
20867;BMP280;10593;48.398;10.698;2024-02-23T07:53:30;94483.31;;;13.32
20867;BMP280;10593;48.398;10.698;2024-02-23T07:55:58;94472.09;;;13.33
20867;BMP280;10593;48.398;10.698;2024-02-23T07:58:25;94469.50;;;13.33
20867;BMP280;10593;48.398;10.698;2024-02-23T08:00:54;94477.25;;;13.33
20867;BMP280;10593;48.398;10.698;2024-02-23T08:03:19;94467.75;;;13.33
20867;BMP280;10593;48.398;10.698;2024-02-23T08:05:45;94467.75;;;13.33
20867;BMP280;10593;48.398;10.698;2024-02-23T08:08:11;94487.56;;;13.33
20867;BMP280;10593;48.398;10.698;2024-02-23T08:10:36;94505.50;;;13.34
20867;BMP280;10593;48.398;10.698;2024-02-23T08:13:02;94511.50;;;13.35
20867;BMP280;10593;48.398;10.698;2024-02-23T08:15:28;94519.25;;;13.35
20867;BMP280;10593;48.398;10.698;2024-02-23T08:17:53;94513.16;;;13.36
20867;BMP280;10593;48.398;10.698;2024-02-23T08:20:19;94509.75;;;13.35
20867;BMP280;10593;48.398;10.698;2024-02-23T08:22:45;94519.13;;;13.36
20867;BMP280;10593;48.398;10.698;2024-02-23T08:25:11;94508.00;;;13.36
20867;BMP280;10593;48.398;10.698;2024-02-23T08:27:36;94508.81;;;13.36
20867;BMP280;10593;48.398;10.698;2024-02-23T08:30:02;94500.16;;;13.37
20867;BMP280;10593;48.398;10.698;2024-02-23T08:32:28;94519.06;;;13.38
20867;BMP280;10593;48.398;10.698;2024-02-23T08:34:54;94522.50;;;13.38
20867;BMP280;10593;48.398;10.698;2024-02-23T08:37:28;94522.38;;;13.40
20867;BMP280;10593;48.398;10.698;2024-02-23T08:39:54;94532.72;;;13.40
20867;BMP280;10593;48.398;10.698;2024-02-23T08:42:20;94542.22;;;13.39
20867;BMP280;10593;48.398;10.698;2024-02-23T08:44:45;94545.59;;;13.40
20867;BMP280;10593;48.398;10.698;2024-02-23T08:47:11;94552.41;;;13.41
20867;BMP280;10593;48.398;10.698;2024-02-23T08:49:37;94543.88;;;13.40
20867;BMP280;10593;48.398;10.698;2024-02-23T08:52:03;94531.72;;;13.42
20867;BMP280;10593;48.398;10.698;2024-02-23T08:54:29;94528.28;;;13.42
20867;BMP280;10593;48.398;10.698;2024-02-23T08:56:55;94530.88;;;13.42
20867;BMP280;10593;48.398;10.698;2024-02-23T08:59:21;94536.88;;;13.42
20867;BMP280;10593;48.398;10.698;2024-02-23T09:01:47;94536.94;;;13.41
20867;BMP280;10593;48.398;10.698;2024-02-23T09:04:13;94542.84;;;13.43
20867;BMP280;10593;48.398;10.698;2024-02-23T09:06:39;94537.69;;;13.43
20867;BMP280;10593;48.398;10.698;2024-02-23T09:09:04;94552.25;;;13.44
20867;BMP280;10593;48.398;10.698;2024-02-23T09:11:30;94547.94;;;13.44
20867;BMP280;10593;48.398;10.698;2024-02-23T09:13:56;94549.59;;;13.45
20867;BMP280;10593;48.398;10.698;2024-02-23T09:16:21;94545.28;;;13.46
20867;BMP280;10593;48.398;10.698;2024-02-23T09:18:50;94538.34;;;13.46
20867;BMP280;10593;48.398;10.698;2024-02-23T09:21:16;94539.19;;;13.47
20867;BMP280;10593;48.398;10.698;2024-02-23T09:23:42;94528.88;;;13.47
20867;BMP280;10593;48.398;10.698;2024-02-23T09:26:10;94540.84;;;13.48
20867;BMP280;10593;48.398;10.698;2024-02-23T09:28:38;94560.56;;;13.49
20867;BMP280;10593;48.398;10.698;2024-02-23T09:31:06;94565.75;;;13.49
20867;BMP280;10593;48.398;10.698;2024-02-23T09:33:32;94558.00;;;13.49
20867;BMP280;10593;48.398;10.698;2024-02-23T09:35:58;94564.81;;;13.50
20867;BMP280;10593;48.398;10.698;2024-02-23T09:38:25;94559.66;;;13.50
20867;BMP280;10593;48.398;10.698;2024-02-23T09:40:51;94575.06;;;13.51
20867;BMP280;10593;48.398;10.698;2024-02-23T09:43:21;94563.91;;;13.51
20867;BMP280;10593;48.398;10.698;2024-02-23T09:45:50;94557.00;;;13.51
20867;BMP280;10593;48.398;10.698;2024-02-23T09:48:18;94545.75;;;13.52
20867;BMP280;10593;48.398;10.698;2024-02-23T09:50:47;94558.66;;;13.52
20867;BMP280;10593;48.398;10.698;2024-02-23T09:53:13;94559.47;;;13.53
20867;BMP280;10593;48.398;10.698;2024-02-23T09:55:39;94565.38;;;13.55
20867;BMP280;10593;48.398;10.698;2024-02-23T09:58:07;94566.31;;;13.54
20867;BMP280;10593;48.398;10.698;2024-02-23T10:00:36;94576.53;;;13.55
20867;BMP280;10593;48.398;10.698;2024-02-23T10:03:04;94568.81;;;13.55
20867;BMP280;10593;48.398;10.698;2024-02-23T10:05:31;94565.38;;;13.55
20867;BMP280;10593;48.398;10.698;2024-02-23T10:07:59;94561.06;;;13.55
20867;BMP280;10593;48.398;10.698;2024-02-23T10:10:32;94551.56;;;13.56
20867;BMP280;10593;48.398;10.698;2024-02-23T10:12:59;94562.81;;;13.55
20867;BMP280;10593;48.398;10.698;2024-02-23T10:15:24;94560.16;;;13.56
20867;BMP280;10593;48.398;10.698;2024-02-23T10:17:51;94561.06;;;13.55
20867;BMP280;10593;48.398;10.698;2024-02-23T10:20:17;94556.66;;;13.57
20867;BMP280;10593;48.398;10.698;2024-02-23T10:22:43;94563.53;;;13.57
20867;BMP280;10593;48.398;10.698;2024-02-23T10:25:10;94571.22;;;13.58
20867;BMP280;10593;48.398;10.698;2024-02-23T10:27:36;94566.03;;;13.58
20867;BMP280;10593;48.398;10.698;2024-02-23T10:30:02;94564.38;;;13.57
20867;BMP280;10593;48.398;10.698;2024-02-23T10:32:30;94563.47;;;13.58
20867;BMP280;10593;48.398;10.698;2024-02-23T10:35:00;94546.25;;;13.59
20867;BMP280;10593;48.398;10.698;2024-02-23T10:37:29;94530.78;;;13.59
20867;BMP280;10593;48.398;10.698;2024-02-23T10:39:58;94539.31;;;13.59
20867;BMP280;10593;48.398;10.698;2024-02-23T10:42:33;94553.88;;;13.60
20867;BMP280;10593;48.398;10.698;2024-02-23T10:45:01;94566.78;;;13.60
20867;BMP280;10593;48.398;10.698;2024-02-23T10:47:30;94570.22;;;13.61
20867;BMP280;10593;48.398;10.698;2024-02-23T10:50:00;94566.78;;;13.60
20867;BMP280;10593;48.398;10.698;2024-02-23T10:52:27;94558.22;;;13.60
20867;BMP280;10593;48.398;10.698;2024-02-23T10:54:54;94556.38;;;13.62
20867;BMP280;10593;48.398;10.698;2024-02-23T10:57:22;94546.88;;;13.62
20867;BMP280;10593;48.398;10.698;2024-02-23T10:59:48;94547.72;;;13.63
20867;BMP280;10593;48.398;10.698;2024-02-23T11:02:18;94553.72;;;13.63
20867;BMP280;10593;48.398;10.698;2024-02-23T11:04:49;94565.69;;;13.64
20867;BMP280;10593;48.398;10.698;2024-02-23T11:07:19;94567.38;;;13.65
20867;BMP280;10593;48.398;10.698;2024-02-23T11:09:52;94551.91;;;13.65
20867;BMP280;10593;48.398;10.698;2024-02-23T11:12:25;94558.78;;;13.65
20867;BMP280;10593;48.398;10.698;2024-02-23T11:14:56;94551.91;;;13.65
20867;BMP280;10593;48.398;10.698;2024-02-23T11:17:26;94545.91;;;13.65
20867;BMP280;10593;48.398;10.698;2024-02-23T11:19:54;94547.56;;;13.66
20867;BMP280;10593;48.398;10.698;2024-02-23T11:22:31;94539.00;;;13.65
20867;BMP280;10593;48.398;10.698;2024-02-23T11:25:07;94549.22;;;13.67
20867;BMP280;10593;48.398;10.698;2024-02-23T11:27:38;94542.38;;;13.66
20867;BMP280;10593;48.398;10.698;2024-02-23T11:30:08;94544.91;;;13.67
20867;BMP280;10593;48.398;10.698;2024-02-23T11:32:41;94549.13;;;13.68
20867;BMP280;10593;48.398;10.698;2024-02-23T11:35:11;94550.06;;;13.67
20867;BMP280;10593;48.398;10.698;2024-02-23T11:37:53;94547.38;;;13.69
20867;BMP280;10593;48.398;10.698;2024-02-23T11:40:28;94544.06;;;13.67
20867;BMP280;10593;48.398;10.698;2024-02-23T11:42:57;94542.22;;;13.69
20867;BMP280;10593;48.398;10.698;2024-02-23T11:45:28;94543.06;;;13.69
20867;BMP280;10593;48.398;10.698;2024-02-23T11:47:53;94537.91;;;13.69
20867;BMP280;10593;48.398;10.698;2024-02-23T11:50:19;94530.88;;;13.71
20867;BMP280;10593;48.398;10.698;2024-02-23T11:52:46;94530.88;;;13.71
20867;BMP280;10593;48.398;10.698;2024-02-23T11:55:12;94534.31;;;13.72
20867;BMP280;10593;48.398;10.698;2024-02-23T11:57:39;94529.06;;;13.73
20867;BMP280;10593;48.398;10.698;2024-02-23T12:00:06;94535.88;;;13.74
20867;BMP280;10593;48.398;10.698;2024-02-23T12:02:34;94517.81;;;13.74
20867;BMP280;10593;48.398;10.698;2024-02-23T12:05:00;94520.38;;;13.74
20867;BMP280;10593;48.398;10.698;2024-02-23T12:07:29;94522.88;;;13.76
20867;BMP280;10593;48.398;10.698;2024-02-23T12:09:56;94523.69;;;13.76
20867;BMP280;10593;48.398;10.698;2024-02-23T12:12:22;94517.63;;;13.77
20867;BMP280;10593;48.398;10.698;2024-02-23T12:14:48;94514.16;;;13.78
20867;BMP280;10593;48.398;10.698;2024-02-23T12:17:14;94505.56;;;13.78
20867;BMP280;10593;48.398;10.698;2024-02-23T12:19:40;94501.13;;;13.80
20867;BMP280;10593;48.398;10.698;2024-02-23T12:22:07;94509.72;;;13.80
20867;BMP280;10593;48.398;10.698;2024-02-23T12:24:34;94513.13;;;13.81
20867;BMP280;10593;48.398;10.698;2024-02-23T12:27:00;94512.19;;;13.82
20867;BMP280;10593;48.398;10.698;2024-02-23T12:29:25;94512.19;;;13.82
20867;BMP280;10593;48.398;10.698;2024-02-23T12:32:05;94520.69;;;13.84
20867;BMP280;10593;48.398;10.698;2024-02-23T12:34:32;94523.25;;;13.84
20867;BMP280;10593;48.398;10.698;2024-02-23T12:36:57;94520.69;;;13.84
20867;BMP280;10593;48.398;10.698;2024-02-23T12:39:23;94517.22;;;13.85
20867;BMP280;10593;48.398;10.698;2024-02-23T12:41:49;94523.09;;;13.87
20867;BMP280;10593;48.398;10.698;2024-02-23T12:44:16;94517.94;;;13.87
20867;BMP280;10593;48.398;10.698;2024-02-23T12:46:42;94517.03;;;13.88
20867;BMP280;10593;48.398;10.698;2024-02-23T12:49:08;94522.19;;;13.88
20867;BMP280;10593;48.398;10.698;2024-02-23T12:51:33;94528.16;;;13.88
20867;BMP280;10593;48.398;10.698;2024-02-23T12:54:00;94522.94;;;13.90
20867;BMP280;10593;48.398;10.698;2024-02-23T12:56:26;94532.31;;;13.91
20867;BMP280;10593;48.398;10.698;2024-02-23T12:58:52;94529.66;;;13.92
20867;BMP280;10593;48.398;10.698;2024-02-23T13:01:19;94523.59;;;13.93
20867;BMP280;10593;48.398;10.698;2024-02-23T13:03:45;94530.47;;;13.93
20867;BMP280;10593;48.398;10.698;2024-02-23T13:06:11;94529.56;;;13.94
20867;BMP280;10593;48.398;10.698;2024-02-23T13:08:36;94523.47;;;13.95
20867;BMP280;10593;48.398;10.698;2024-02-23T13:11:04;94510.50;;;13.96
20867;BMP280;10593;48.398;10.698;2024-02-23T13:13:30;94499.31;;;13.96
20867;BMP280;10593;48.398;10.698;2024-02-23T13:15:56;94504.41;;;13.97
20867;BMP280;10593;48.398;10.698;2024-02-23T13:18:22;94502.63;;;13.98
20867;BMP280;10593;48.398;10.698;2024-02-23T13:20:48;94496.59;;;13.99
20867;BMP280;10593;48.398;10.698;2024-02-23T13:23:14;94488.84;;;13.99
20867;BMP280;10593;48.398;10.698;2024-02-23T13:25:41;94493.88;;;14.00
20867;BMP280;10593;48.398;10.698;2024-02-23T13:28:08;94501.63;;;14.00
20867;BMP280;10593;48.398;10.698;2024-02-23T13:30:35;94494.75;;;14.01
20867;BMP280;10593;48.398;10.698;2024-02-23T13:33:01;94494.63;;;14.02
20867;BMP280;10593;48.398;10.698;2024-02-23T13:35:27;94498.06;;;14.03
20867;BMP280;10593;48.398;10.698;2024-02-23T13:37:54;94497.13;;;14.04
20867;BMP280;10593;48.398;10.698;2024-02-23T13:40:20;94495.28;;;14.06
20867;BMP280;10593;48.398;10.698;2024-02-23T13:42:46;94491.03;;;14.05
20867;BMP280;10593;48.398;10.698;2024-02-23T13:45:15;94456.63;;;14.04
20867;BMP280;10593;48.398;10.698;2024-02-23T13:47:54;94453.97;;;14.06
20867;BMP280;10593;48.398;10.698;2024-02-23T13:50:20;94452.22;;;14.06
20867;BMP280;10593;48.398;10.698;2024-02-23T13:52:47;94455.63;;;14.07
20867;BMP280;10593;48.398;10.698;2024-02-23T13:55:13;94448.63;;;14.09